Time,TemperatureF,DewpointF,PressureIn,WindDirection,WindDirectionDegrees,WindSpeedMPH,WindSpeedGustMPH,Humidity,HourlyPrecipIn,Conditions,Clouds,dailyrainin,SolarRadiationWatts/m^2,SoftwareType,DateUTC
2013-05-17 00:04:00,48.6,43.4,29.63,NW,312,2.0,3.0,82,0.00,,,0.00,0,Wunderground v.1.15,2013-05-17 06:04:00,
2013-05-17 00:10:00,48.3,43.4,29.63,NW,324,2.0,2.0,83,0.12,,,0.01,0,Wunderground v.1.15,2013-05-17 06:10:00,
2013-05-17 00:15:00,48.2,43.6,29.63,NW,324,1.0,2.0,84,0.07,,,0.02,0,Wunderground v.1.15,2013-05-17 06:15:00,
2013-05-17 00:20:00,47.9,43.3,29.63,NW,317,0.0,1.0,84,0.07,,,0.02,0,Wunderground v.1.15,2013-05-17 06:20:00,
2013-05-17 00:25:00,47.8,43.2,29.63,NNW,327,0.0,2.0,84,0.08,,,0.03,0,Wunderground v.1.15,2013-05-17 06:25:00,
2013-05-17 00:30:00,47.6,43.3,29.63,NNW,330,0.0,1.0,85,0.06,,,0.03,0,Wunderground v.1.15,2013-05-17 06:30:00,
2013-05-17 00:35:00,47.4,43.4,29.63,NW,322,2.0,3.0,86,0.04,,,0.03,0,Wunderground v.1.15,2013-05-17 06:35:00,
2013-05-17 00:41:00,47.4,43.4,29.64,NW,322,2.0,2.0,86,0.00,,,0.03,0,Wunderground v.1.15,2013-05-17 06:41:00,
2013-05-17 00:46:00,47.2,43.2,29.64,NNW,330,1.0,4.0,86,0.00,,,0.03,0,Wunderground v.1.15,2013-05-17 06:46:00,
2013-05-17 00:52:00,47.2,43.2,29.64,NNW,342,1.0,1.0,86,0.00,,,0.04,0,Wunderground v.1.15,2013-05-17 06:52:00,
2013-05-17 00:57:00,47.1,43.1,29.64,NNW,342,1.0,1.0,86,0.00,,,0.04,0,Wunderground v.1.15,2013-05-17 06:57:00,
2013-05-17 01:02:00,47.1,43.1,29.64,NW,324,1.0,1.0,86,0.00,,,0.04,0,Wunderground v.1.15,2013-05-17 07:02:00,
2013-05-17 01:08:00,47.0,43.0,29.64,NW,324,0.0,1.0,86,0.05,,,0.05,0,Wunderground v.1.15,2013-05-17 07:08:00,
2013-05-17 01:13:00,47.0,43.3,29.64,NW,324,0.0,2.0,87,0.05,,,0.05,0,Wunderground v.1.15,2013-05-17 07:13:00,
2013-05-17 01:18:00,47.0,43.3,29.64,NW,324,0.0,2.0,87,0.04,,,0.05,0,Wunderground v.1.15,2013-05-17 07:18:00,
2013-05-17 01:23:00,47.0,43.3,29.64,NW,324,0.0,1.0,87,0.00,,,0.06,0,Wunderground v.1.15,2013-05-17 07:23:00,
2013-05-17 01:28:00,47.0,43.3,29.64,NW,324,0.0,1.0,87,0.11,,,0.07,0,Wunderground v.1.15,2013-05-17 07:28:00,
2013-05-17 01:33:00,46.9,43.2,29.64,NW,324,0.0,0.0,87,0.09,,,0.07,0,Wunderground v.1.15,2013-05-17 07:33:00,
2013-05-17 01:38:00,46.9,43.2,29.64,NW,324,0.0,1.0,87,0.05,,,0.07,0,Wunderground v.1.15,2013-05-17 07:38:00,
2013-05-17 01:43:00,46.8,43.1,29.64,NW,324,1.0,1.0,87,0.05,,,0.08,0,Wunderground v.1.15,2013-05-17 07:43:00,
2013-05-17 01:48:00,46.7,43.0,29.64,NW,324,1.0,1.0,87,0.05,,,0.08,0,Wunderground v.1.15,2013-05-17 07:48:00,
2013-05-17 01:53:00,46.7,43.0,29.64,NW,324,0.0,1.0,87,0.05,,,0.08,0,Wunderground v.1.15,2013-05-17 07:53:00,
2013-05-17 01:58:00,46.7,43.0,29.64,NW,324,0.0,1.0,87,0.04,,,0.09,0,Wunderground v.1.15,2013-05-17 07:58:00,
2013-05-17 02:03:00,46.6,42.9,29.64,NW,324,0.0,1.0,87,0.04,,,0.09,0,Wunderground v.1.15,2013-05-17 08:03:00,
2013-05-17 02:08:00,46.6,42.9,29.64,NW,324,1.0,2.0,87,0.04,,,0.09,0,Wunderground v.1.15,2013-05-17 08:08:00,
2013-05-17 02:13:00,46.4,42.7,29.64,NW,324,0.0,2.0,87,0.00,,,0.09,0,Wunderground v.1.15,2013-05-17 08:13:00,
2013-05-17 02:18:00,46.4,42.7,29.64,NW,324,1.0,2.0,87,0.00,,,0.09,0,Wunderground v.1.15,2013-05-17 08:18:00,
2013-05-17 02:23:00,46.3,42.6,29.63,NW,324,2.0,3.0,87,0.00,,,0.09,0,Wunderground v.1.15,2013-05-17 08:23:00,
2013-05-17 02:28:00,46.2,42.5,29.63,NW,317,1.0,3.0,87,0.00,,,0.09,0,Wunderground v.1.15,2013-05-17 08:28:00,
2013-05-17 02:33:00,46.2,42.5,29.63,NW,317,1.0,3.0,87,0.00,,,0.09,0,Wunderground v.1.15,2013-05-17 08:33:00,
2013-05-17 02:38:00,46.1,42.4,29.63,NW,317,1.0,3.0,87,0.00,,,0.09,0,Wunderground v.1.15,2013-05-17 08:38:00,
2013-05-17 02:43:00,46.1,42.4,29.63,NW,316,2.0,3.0,87,0.00,,,0.09,0,Wunderground v.1.15,2013-05-17 08:43:00,
2013-05-17 02:48:00,46.1,42.4,29.62,NW,316,1.0,3.0,87,0.00,,,0.09,0,Wunderground v.1.15,2013-05-17 08:48:00,
2013-05-17 02:53:00,46.0,42.3,29.62,NW,316,2.0,3.0,87,0.00,,,0.09,0,Wunderground v.1.15,2013-05-17 08:53:00,
2013-05-17 02:58:00,45.9,42.2,29.63,NW,316,2.0,3.0,87,0.00,,,0.09,0,Wunderground v.1.15,2013-05-17 08:58:00,
2013-05-17 03:03:00,45.9,42.2,29.62,NW,316,2.0,3.0,87,0.00,,,0.09,0,Wunderground v.1.15,2013-05-17 09:03:00,
2013-05-17 03:09:00,45.9,42.2,29.62,NW,316,1.0,3.0,87,0.00,,,0.09,0,Wunderground v.1.15,2013-05-17 09:09:00,
2013-05-17 03:14:00,45.9,42.5,29.62,NW,316,2.0,2.0,88,0.00,,,0.09,0,Wunderground v.1.15,2013-05-17 09:14:00,
2013-05-17 03:19:00,45.9,42.5,29.62,NW,316,0.0,2.0,88,0.00,,,0.09,0,Wunderground v.1.15,2013-05-17 09:19:00,
2013-05-17 03:24:00,45.9,42.5,29.62,NW,316,0.0,3.0,88,0.00,,,0.09,0,Wunderground v.1.15,2013-05-17 09:24:00,
2013-05-17 03:29:00,45.8,42.4,29.62,NW,316,0.0,3.0,88,0.00,,,0.09,0,Wunderground v.1.15,2013-05-17 09:29:00,
2013-05-17 03:34:00,45.8,42.2,29.62,NW,316,0.0,1.0,87,0.00,,,0.09,0,Wunderground v.1.15,2013-05-17 09:34:00,
2013-05-17 03:39:00,45.8,42.2,29.62,NW,316,0.0,1.0,87,0.00,,,0.09,0,Wunderground v.1.15,2013-05-17 09:39:00,
2013-05-17 03:44:00,45.8,42.4,29.62,NW,316,0.0,1.0,88,0.00,,,0.09,0,Wunderground v.1.15,2013-05-17 09:44:00,
2013-05-17 03:49:00,45.7,42.3,29.61,NW,316,0.0,2.0,88,0.00,,,0.09,0,Wunderground v.1.15,2013-05-17 09:49:00,
2013-05-17 03:54:00,45.7,42.3,29.61,NW,316,0.0,1.0,88,0.00,,,0.09,0,Wunderground v.1.15,2013-05-17 09:54:00,
2013-05-17 03:59:00,45.7,42.3,29.61,NW,316,0.0,1.0,88,0.00,,,0.09,0,Wunderground v.1.15,2013-05-17 09:59:00,
2013-05-17 04:04:00,45.8,42.4,29.61,NW,316,0.0,0.0,88,0.00,,,0.09,0,Wunderground v.1.15,2013-05-17 10:04:00,
2013-05-17 04:09:00,45.8,42.4,29.61,NW,316,0.0,3.0,88,0.00,,,0.09,0,Wunderground v.1.15,2013-05-17 10:09:00,
2013-05-17 04:14:00,45.9,42.5,29.61,NW,316,0.0,1.0,88,0.00,,,0.09,0,Wunderground v.1.15,2013-05-17 10:14:00,
2013-05-17 04:20:00,45.9,42.5,29.61,NW,316,0.0,0.0,88,0.00,,,0.09,0,Wunderground v.1.15,2013-05-17 10:20:00,
2013-05-17 04:25:00,45.9,42.5,29.61,NW,316,0.0,1.0,88,0.00,,,0.09,0,Wunderground v.1.15,2013-05-17 10:25:00,
2013-05-17 04:30:00,45.9,42.5,29.61,NW,316,1.0,1.0,88,0.00,,,0.09,0,Wunderground v.1.15,2013-05-17 10:30:00,
2013-05-17 04:35:00,45.9,42.5,29.61,NW,316,1.0,1.0,88,0.00,,,0.09,0,Wunderground v.1.15,2013-05-17 10:35:00,
2013-05-17 04:40:00,45.8,42.4,29.61,NW,316,0.0,1.0,88,0.00,,,0.09,0,Wunderground v.1.15,2013-05-17 10:40:00,
2013-05-17 04:45:00,45.8,42.4,29.61,NW,316,1.0,2.0,88,0.00,,,0.09,0,Wunderground v.1.15,2013-05-17 10:45:00,
2013-05-17 04:50:00,45.8,42.4,29.61,NW,316,0.0,1.0,88,0.00,,,0.09,0,Wunderground v.1.15,2013-05-17 10:50:00,
2013-05-17 04:55:00,45.8,42.4,29.60,NW,316,0.0,1.0,88,0.00,,,0.09,0,Wunderground v.1.15,2013-05-17 10:55:00,
2013-05-17 05:00:00,45.7,42.3,29.61,NW,316,0.0,0.0,88,0.00,,,0.09,0,Wunderground v.1.15,2013-05-17 11:00:00,
2013-05-17 05:05:00,45.8,42.4,29.61,NW,316,1.0,2.0,88,0.00,,,0.09,0,Wunderground v.1.15,2013-05-17 11:05:00,
2013-05-17 05:10:00,45.8,42.4,29.61,NW,316,0.0,1.0,88,0.00,,,0.09,0,Wunderground v.1.15,2013-05-17 11:10:00,
2013-05-17 05:15:00,45.8,42.4,29.61,NW,316,0.0,1.0,88,0.00,,,0.09,0,Wunderground v.1.15,2013-05-17 11:15:00,
2013-05-17 05:20:00,45.8,42.4,29.61,NW,316,0.0,0.0,88,0.00,,,0.09,0,Wunderground v.1.15,2013-05-17 11:20:00,
2013-05-17 05:25:00,45.9,42.5,29.61,NW,316,0.0,1.0,88,0.00,,,0.09,0,Wunderground v.1.15,2013-05-17 11:25:00,
2013-05-17 05:30:00,45.9,42.5,29.61,NW,316,0.0,0.0,88,0.00,,,0.09,0,Wunderground v.1.15,2013-05-17 11:30:00,
2013-05-17 05:35:00,46.0,42.6,29.61,NW,316,0.0,0.0,88,0.00,,,0.09,0,Wunderground v.1.15,2013-05-17 11:35:00,
2013-05-17 05:40:00,46.0,42.9,29.61,NW,316,0.0,0.0,89,0.00,,,0.09,0,Wunderground v.1.15,2013-05-17 11:40:00,
2013-05-17 05:45:00,46.0,42.9,29.61,NW,316,0.0,0.0,89,0.00,,,0.09,0,Wunderground v.1.15,2013-05-17 11:45:00,
2013-05-17 05:50:00,46.0,42.9,29.61,NW,316,0.0,0.0,89,0.00,,,0.09,0,Wunderground v.1.15,2013-05-17 11:50:00,
2013-05-17 05:55:00,46.0,42.9,29.61,NW,316,0.0,0.0,89,0.00,,,0.09,0,Wunderground v.1.15,2013-05-17 11:55:00,
2013-05-17 06:01:00,46.0,42.9,29.61,NW,316,0.0,0.0,89,0.00,,,0.09,5,Wunderground v.1.15,2013-05-17 12:01:00,
2013-05-17 06:06:00,46.1,43.0,29.61,NW,316,0.0,0.0,89,0.00,,,0.09,7,Wunderground v.1.15,2013-05-17 12:06:00,
2013-05-17 06:11:00,46.0,42.9,29.61,NW,316,0.0,0.0,89,0.00,,,0.09,12,Wunderground v.1.15,2013-05-17 12:11:00,
2013-05-17 06:16:00,46.0,42.9,29.61,NW,316,0.0,0.0,89,0.00,,,0.09,14,Wunderground v.1.15,2013-05-17 12:16:00,
2013-05-17 06:22:00,46.0,42.9,29.61,NW,316,0.0,0.0,89,0.00,,,0.09,16,Wunderground v.1.15,2013-05-17 12:22:00,
2013-05-17 06:27:00,46.0,42.9,29.61,NW,316,0.0,0.0,89,0.00,,,0.09,21,Wunderground v.1.15,2013-05-17 12:27:00,
2013-05-17 06:32:00,46.0,42.9,29.61,NW,316,0.0,0.0,89,0.00,,,0.09,21,Wunderground v.1.15,2013-05-17 12:32:00,
2013-05-17 06:37:00,46.0,42.9,29.61,NW,316,0.0,0.0,89,0.00,,,0.09,21,Wunderground v.1.15,2013-05-17 12:37:00,
2013-05-17 06:42:00,46.2,43.4,29.61,NW,316,0.0,0.0,90,0.00,,,0.09,30,Wunderground v.1.15,2013-05-17 12:42:00,
2013-05-17 06:47:00,46.2,43.4,29.61,NW,316,0.0,0.0,90,0.00,,,0.09,33,Wunderground v.1.15,2013-05-17 12:47:00,
2013-05-17 06:52:00,46.2,43.4,29.61,NW,316,0.0,0.0,90,0.00,,,0.09,33,Wunderground v.1.15,2013-05-17 12:52:00,
2013-05-17 06:57:00,46.2,43.4,29.62,NW,316,0.0,0.0,90,0.00,,,0.09,30,Wunderground v.1.15,2013-05-17 12:57:00,
2013-05-17 07:02:00,46.2,43.4,29.61,NW,316,0.0,1.0,90,0.00,,,0.09,32,Wunderground v.1.15,2013-05-17 13:02:00,
2013-05-17 07:07:00,46.1,43.3,29.62,NW,316,0.0,1.0,90,0.00,,,0.09,30,Wunderground v.1.15,2013-05-17 13:07:00,
2013-05-17 07:12:00,46.2,43.4,29.62,NW,316,0.0,0.0,90,0.00,,,0.09,30,Wunderground v.1.15,2013-05-17 13:12:00,
2013-05-17 07:17:00,46.2,43.4,29.62,NW,316,0.0,0.0,90,0.00,,,0.09,28,Wunderground v.1.15,2013-05-17 13:17:00,
2013-05-17 07:22:00,46.3,43.5,29.62,NW,316,0.0,0.0,90,0.00,,,0.09,47,Wunderground v.1.15,2013-05-17 13:22:00,
2013-05-17 07:27:00,46.3,43.5,29.62,NW,316,0.0,0.0,90,0.00,,,0.09,63,Wunderground v.1.15,2013-05-17 13:27:00,
2013-05-17 07:32:00,46.5,43.7,29.62,NW,316,0.0,0.0,90,0.00,,,0.09,63,Wunderground v.1.15,2013-05-17 13:32:00,
2013-05-17 07:37:00,46.4,43.6,29.62,NW,316,0.0,0.0,90,0.00,,,0.09,70,Wunderground v.1.15,2013-05-17 13:37:00,
2013-05-17 07:42:00,46.4,43.6,29.62,NW,316,0.0,0.0,90,0.00,,,0.09,93,Wunderground v.1.15,2013-05-17 13:42:00,
2013-05-17 07:47:00,46.5,43.7,29.62,NW,316,0.0,2.0,90,0.00,,,0.09,113,Wunderground v.1.15,2013-05-17 13:47:00,
2013-05-17 07:52:00,46.6,43.8,29.62,NW,316,0.0,0.0,90,0.00,,,0.09,90,Wunderground v.1.15,2013-05-17 13:52:00,
2013-05-17 07:57:00,46.7,43.9,29.62,NW,316,0.0,0.0,90,0.00,,,0.09,97,Wunderground v.1.15,2013-05-17 13:57:00,
2013-05-17 08:02:00,46.9,44.1,29.62,NW,316,0.0,0.0,90,0.00,,,0.09,102,Wunderground v.1.15,2013-05-17 14:02:00,
2013-05-17 08:07:00,47.2,44.4,29.62,NW,316,0.0,1.0,90,0.00,,,0.09,90,Wunderground v.1.15,2013-05-17 14:07:00,
2013-05-17 08:12:00,47.3,44.5,29.62,NW,316,0.0,0.0,90,0.00,,,0.09,93,Wunderground v.1.15,2013-05-17 14:12:00,
2013-05-17 08:17:00,47.4,44.6,29.62,NW,316,0.0,0.0,90,0.00,,,0.09,142,Wunderground v.1.15,2013-05-17 14:17:00,
2013-05-17 08:22:00,47.5,44.7,29.62,NW,316,1.0,1.0,90,0.00,,,0.09,130,Wunderground v.1.15,2013-05-17 14:22:00,
2013-05-17 08:27:00,47.6,44.8,29.62,NW,316,0.0,2.0,90,0.00,,,0.09,146,Wunderground v.1.15,2013-05-17 14:27:00,
2013-05-17 08:32:00,47.7,44.9,29.62,NW,316,0.0,1.0,90,0.00,,,0.09,153,Wunderground v.1.15,2013-05-17 14:32:00,
2013-05-17 08:38:00,47.7,44.9,29.62,NW,316,0.0,1.0,90,0.00,,,0.09,169,Wunderground v.1.15,2013-05-17 14:38:00,
2013-05-17 08:43:00,47.8,45.0,29.62,NW,316,1.0,2.0,90,0.00,,,0.09,190,Wunderground v.1.15,2013-05-17 14:43:00,
2013-05-17 08:48:00,47.9,45.1,29.62,NW,316,1.0,2.0,90,0.00,,,0.09,197,Wunderground v.1.15,2013-05-17 14:48:00,
2013-05-17 08:53:00,47.9,44.8,29.62,NW,316,0.0,1.0,89,0.00,,,0.09,181,Wunderground v.1.15,2013-05-17 14:53:00,
2013-05-17 08:58:00,48.0,44.9,29.62,NW,316,0.0,1.0,89,0.00,,,0.09,171,Wunderground v.1.15,2013-05-17 14:58:00,
2013-05-17 09:03:00,48.1,45.0,29.62,NW,316,0.0,0.0,89,0.00,,,0.09,142,Wunderground v.1.15,2013-05-17 15:03:00,
2013-05-17 09:08:00,48.5,45.4,29.62,NW,316,0.0,0.0,89,0.00,,,0.09,132,Wunderground v.1.15,2013-05-17 15:08:00,
2013-05-17 09:13:00,48.6,45.5,29.62,NW,316,1.0,2.0,89,0.00,,,0.09,134,Wunderground v.1.15,2013-05-17 15:13:00,
2013-05-17 09:18:00,48.8,45.7,29.62,NW,316,1.0,2.0,89,0.00,,,0.09,116,Wunderground v.1.15,2013-05-17 15:18:00,
2013-05-17 09:23:00,48.8,45.4,29.62,NW,316,0.0,1.0,88,0.00,,,0.09,114,Wunderground v.1.15,2013-05-17 15:23:00,
2013-05-17 09:28:00,48.7,45.0,29.62,NW,316,0.0,1.0,87,0.00,,,0.09,118,Wunderground v.1.15,2013-05-17 15:28:00,
2013-05-17 09:33:00,48.8,45.1,29.62,NW,316,0.0,0.0,87,0.00,,,0.09,146,Wunderground v.1.15,2013-05-17 15:33:00,
2013-05-17 09:38:00,48.8,45.1,29.63,NW,316,0.0,0.0,87,0.00,,,0.09,197,Wunderground v.1.15,2013-05-17 15:38:00,
2013-05-17 09:43:00,49.0,45.3,29.62,NW,316,0.0,1.0,87,0.00,,,0.09,237,Wunderground v.1.15,2013-05-17 15:43:00,
2013-05-17 09:48:00,49.2,45.5,29.62,NW,316,0.0,2.0,87,0.00,,,0.09,276,Wunderground v.1.15,2013-05-17 15:48:00,
2013-05-17 09:53:00,49.2,45.2,29.63,NW,316,0.0,1.0,86,0.00,,,0.10,339,Wunderground v.1.15,2013-05-17 15:53:00,
2013-05-17 09:58:00,49.2,44.9,29.63,NW,316,0.0,1.0,85,0.00,,,0.10,279,Wunderground v.1.15,2013-05-17 15:58:00,
2013-05-17 10:03:00,49.7,45.4,29.63,NW,316,0.0,0.0,85,0.00,,,0.10,234,Wunderground v.1.15,2013-05-17 16:03:00,
2013-05-17 10:08:00,50.0,45.7,29.63,NW,316,0.0,1.0,85,0.00,,,0.10,185,Wunderground v.1.15,2013-05-17 16:08:00,
2013-05-17 10:13:00,50.3,45.6,29.63,NW,316,1.0,2.0,84,0.00,,,0.10,232,Wunderground v.1.15,2013-05-17 16:13:00,
2013-05-17 10:18:00,50.4,45.4,29.63,NW,316,1.0,2.0,83,0.00,,,0.10,232,Wunderground v.1.15,2013-05-17 16:18:00,
2013-05-17 10:23:00,50.6,45.6,29.63,NW,316,0.0,1.0,83,0.00,,,0.10,294,Wunderground v.1.15,2013-05-17 16:23:00,
2013-05-17 10:28:00,50.6,45.0,29.63,NW,316,0.0,2.0,81,0.00,,,0.10,234,Wunderground v.1.15,2013-05-17 16:28:00,
2013-05-17 10:33:00,50.8,45.2,29.63,NW,316,0.0,1.0,81,0.00,,,0.10,246,Wunderground v.1.15,2013-05-17 16:33:00,
2013-05-17 10:38:00,50.9,44.6,29.63,NW,316,0.0,1.0,79,0.00,,,0.10,230,Wunderground v.1.15,2013-05-17 16:38:00,
2013-05-17 10:43:00,51.0,44.7,29.63,NW,316,0.0,1.0,79,0.00,,,0.10,297,Wunderground v.1.15,2013-05-17 16:43:00,
2013-05-17 10:48:00,51.2,43.9,29.63,NW,316,1.0,2.0,76,0.00,,,0.10,301,Wunderground v.1.15,2013-05-17 16:48:00,
2013-05-17 10:53:00,51.5,43.8,29.63,NW,316,0.0,1.0,75,0.00,,,0.10,315,Wunderground v.1.15,2013-05-17 16:53:00,
2013-05-17 10:58:00,51.8,43.8,29.63,NW,316,0.0,2.0,74,0.00,,,0.10,320,Wunderground v.1.15,2013-05-17 16:58:00,
2013-05-17 11:03:00,52.1,43.7,29.63,NW,316,0.0,1.0,73,0.00,,,0.10,332,Wunderground v.1.15,2013-05-17 17:03:00,
2013-05-17 11:09:00,52.4,44.0,29.63,NW,316,0.0,2.0,73,0.00,,,0.10,441,Wunderground v.1.15,2013-05-17 17:09:00,
2013-05-17 11:14:00,52.7,43.9,29.62,NW,317,0.0,3.0,72,0.00,,,0.10,533,Wunderground v.1.15,2013-05-17 17:14:00,
2013-05-17 11:19:00,53.2,44.8,29.62,NNW,347,3.0,3.0,73,0.00,,,0.10,657,Wunderground v.1.15,2013-05-17 17:19:00,
2013-05-17 11:24:00,53.7,44.5,29.62,North,10,0.0,3.0,71,0.00,,,0.10,401,Wunderground v.1.15,2013-05-17 17:24:00,
2013-05-17 11:29:00,54.0,44.4,29.62,NE,39,2.0,4.0,70,0.00,,,0.10,388,Wunderground v.1.15,2013-05-17 17:29:00,
2013-05-17 11:34:00,54.0,45.2,29.62,NE,49,0.0,4.0,72,0.00,,,0.10,418,Wunderground v.1.15,2013-05-17 17:34:00,
2013-05-17 11:39:00,54.1,43.4,29.62,NE,47,1.0,4.0,67,0.00,,,0.10,394,Wunderground v.1.15,2013-05-17 17:39:00,
2013-05-17 11:44:00,54.2,45.0,29.61,NE,47,2.0,3.0,71,0.00,,,0.10,592,Wunderground v.1.15,2013-05-17 17:44:00,
2013-05-17 11:49:00,54.7,45.8,29.61,NE,49,0.0,3.0,72,0.00,,,0.10,401,Wunderground v.1.15,2013-05-17 17:49:00,
2013-05-17 11:54:00,55.0,44.6,29.61,NE,47,1.0,3.0,68,0.00,,,0.10,424,Wunderground v.1.15,2013-05-17 17:54:00,
2013-05-17 11:59:00,55.2,44.0,29.62,NE,47,1.0,3.0,66,0.00,,,0.10,385,Wunderground v.1.15,2013-05-17 17:59:00,
2013-05-17 12:04:00,54.8,44.0,29.61,NE,49,0.0,3.0,67,0.00,,,0.10,503,Wunderground v.1.15,2013-05-17 18:04:00,
2013-05-17 12:10:00,54.9,44.1,29.61,NE,48,0.0,1.0,67,0.00,,,0.10,429,Wunderground v.1.15,2013-05-17 18:10:00,
2013-05-17 12:15:00,55.2,44.4,29.61,NE,48,1.0,3.0,67,0.00,,,0.10,436,Wunderground v.1.15,2013-05-17 18:15:00,
2013-05-17 12:20:00,55.3,45.7,29.61,NE,54,1.0,2.0,70,0.00,,,0.10,489,Wunderground v.1.15,2013-05-17 18:20:00,
2013-05-17 12:25:00,55.5,45.9,29.61,NE,54,0.0,3.0,70,0.00,,,0.10,401,Wunderground v.1.15,2013-05-17 18:25:00,
2013-05-17 12:30:00,55.7,44.5,29.61,NE,45,0.0,1.0,66,0.00,,,0.10,392,Wunderground v.1.15,2013-05-17 18:30:00,
2013-05-17 12:35:00,55.9,45.5,29.61,NE,45,0.0,4.0,68,0.00,,,0.10,475,Wunderground v.1.15,2013-05-17 18:35:00,
2013-05-17 12:40:00,56.1,45.7,29.60,NE,45,2.0,3.0,68,0.00,,,0.10,343,Wunderground v.1.15,2013-05-17 18:40:00,
2013-05-17 12:45:00,55.8,44.6,29.60,ENE,77,0.0,6.0,66,0.00,,,0.10,374,Wunderground v.1.15,2013-05-17 18:45:00,
2013-05-17 12:51:00,55.3,44.1,29.60,ENE,77,0.0,2.0,66,0.00,,,0.10,153,Wunderground v.1.15,2013-05-17 18:51:00,
2013-05-17 12:57:00,55.0,44.2,29.60,ENE,77,1.0,3.0,67,0.00,,,0.10,234,Wunderground v.1.15,2013-05-17 18:57:00,
2013-05-17 13:02:00,54.9,45.3,29.60,ENE,74,2.0,2.0,70,0.00,,,0.10,353,Wunderground v.1.15,2013-05-17 19:02:00,
2013-05-17 13:07:00,55.1,45.5,29.60,ENE,74,1.0,3.0,70,0.00,,,0.10,139,Wunderground v.1.15,2013-05-17 19:07:00,
2013-05-17 13:12:00,55.0,45.0,29.60,ENE,74,0.0,1.0,69,0.00,,,0.10,83,Wunderground v.1.15,2013-05-17 19:12:00,
2013-05-17 13:17:00,54.6,44.6,29.60,ENE,74,0.0,2.0,69,0.00,,,0.10,123,Wunderground v.1.15,2013-05-17 19:17:00,
2013-05-17 13:22:00,54.2,44.6,29.60,ENE,74,1.0,2.0,70,0.00,,,0.10,142,Wunderground v.1.15,2013-05-17 19:22:00,
2013-05-17 13:27:00,53.8,44.6,29.60,ENE,74,1.0,2.0,71,0.00,,,0.10,81,Wunderground v.1.15,2013-05-17 19:27:00,
2013-05-17 13:32:00,53.4,45.0,29.60,ENE,74,0.0,0.0,73,0.00,,,0.11,79,Wunderground v.1.15,2013-05-17 19:32:00,
2013-05-17 13:37:00,53.3,45.6,29.61,ENE,74,1.0,1.0,75,0.00,,,0.11,54,Wunderground v.1.15,2013-05-17 19:37:00,
2013-05-17 13:42:00,53.2,45.5,29.61,ENE,74,2.0,2.0,75,0.00,,,0.11,54,Wunderground v.1.15,2013-05-17 19:42:00,
2013-05-17 13:47:00,53.0,45.6,29.61,ENE,74,1.0,3.0,76,0.04,,,0.12,58,Wunderground v.1.15,2013-05-17 19:47:00,
2013-05-17 13:52:00,52.8,46.1,29.61,ENE,74,2.0,3.0,78,0.17,,,0.13,81,Wunderground v.1.15,2013-05-17 19:52:00,
2013-05-17 13:57:00,52.5,45.8,29.61,ENE,74,2.0,3.0,78,0.22,,,0.15,118,Wunderground v.1.15,2013-05-17 19:57:00,
2013-05-17 14:02:00,52.3,45.3,29.61,ENE,74,0.0,2.0,77,0.12,,,0.16,151,Wunderground v.1.15,2013-05-17 20:02:00,
2013-05-17 14:07:00,52.1,45.8,29.62,ENE,74,0.0,2.0,79,0.10,,,0.16,178,Wunderground v.1.15,2013-05-17 20:07:00,
2013-05-17 14:12:00,52.1,46.1,29.62,ENE,74,0.0,1.0,80,0.10,,,0.17,195,Wunderground v.1.15,2013-05-17 20:12:00,
2013-05-17 14:17:00,52.0,46.0,29.62,ENE,74,1.0,1.0,80,0.06,,,0.17,197,Wunderground v.1.15,2013-05-17 20:17:00,
2013-05-17 14:22:00,52.0,46.3,29.62,ENE,74,0.0,1.0,81,0.04,,,0.17,158,Wunderground v.1.15,2013-05-17 20:22:00,
2013-05-17 14:27:00,51.9,46.9,29.62,ENE,74,0.0,2.0,83,0.00,,,0.18,206,Wunderground v.1.15,2013-05-17 20:27:00,
2013-05-17 14:32:00,51.8,46.8,29.63,ENE,74,0.0,1.0,83,0.00,,,0.18,207,Wunderground v.1.15,2013-05-17 20:32:00,
2013-05-17 14:37:00,51.5,46.2,29.62,ENE,74,0.0,1.0,82,0.08,,,0.19,230,Wunderground v.1.15,2013-05-17 20:37:00,
2013-05-17 14:42:00,51.6,46.9,29.62,ENE,74,0.0,0.0,84,0.07,,,0.20,288,Wunderground v.1.15,2013-05-17 20:42:00,
2013-05-17 14:47:00,51.8,47.4,29.62,ENE,74,0.0,1.0,85,0.07,,,0.20,399,Wunderground v.1.15,2013-05-17 20:47:00,
2013-05-17 14:52:00,52.1,48.0,29.62,ENE,74,0.0,1.0,86,0.06,,,0.21,599,Wunderground v.1.15,2013-05-17 20:52:00,
2013-05-17 14:57:00,52.5,48.1,29.62,ENE,74,0.0,3.0,85,0.06,,,0.21,489,Wunderground v.1.15,2013-05-17 20:57:00,
2013-05-17 15:02:00,52.8,48.4,29.62,ENE,74,0.0,0.0,85,0.06,,,0.21,454,Wunderground v.1.15,2013-05-17 21:02:00,
2013-05-17 15:08:00,52.9,47.6,29.62,ENE,74,0.0,0.0,82,0.04,,,0.21,411,Wunderground v.1.15,2013-05-17 21:08:00,
2013-05-17 15:13:00,53.0,46.7,29.61,ENE,74,0.0,0.0,79,0.00,,,0.21,438,Wunderground v.1.15,2013-05-17 21:13:00,
2013-05-17 15:18:00,53.2,47.2,29.61,ENE,74,2.0,2.0,80,0.00,,,0.21,464,Wunderground v.1.15,2013-05-17 21:18:00,
2013-05-17 15:23:00,53.3,46.6,29.61,ENE,74,0.0,1.0,78,0.00,,,0.21,410,Wunderground v.1.15,2013-05-17 21:23:00,
2013-05-17 15:28:00,53.3,47.0,29.61,ENE,74,0.0,3.0,79,0.00,,,0.21,515,Wunderground v.1.15,2013-05-17 21:28:00,
2013-05-17 15:33:00,53.8,48.1,29.61,ENE,74,3.0,4.0,81,0.00,,,0.21,837,Wunderground v.1.15,2013-05-17 21:33:00,
2013-05-17 15:38:00,54.2,47.5,29.60,ENE,74,1.0,4.0,78,0.00,,,0.21,886,Wunderground v.1.15,2013-05-17 21:38:00,
2013-05-17 15:43:00,54.3,47.6,29.60,ENE,74,1.0,3.0,78,0.00,,,0.21,475,Wunderground v.1.15,2013-05-17 21:43:00,
2013-05-17 15:48:00,54.6,47.9,29.60,ENE,74,1.0,3.0,78,0.00,,,0.21,666,Wunderground v.1.15,2013-05-17 21:48:00,
2013-05-17 15:53:00,54.7,48.0,29.59,ENE,74,3.0,3.0,78,0.00,,,0.21,877,Wunderground v.1.15,2013-05-17 21:53:00,
2013-05-17 15:58:00,55.4,47.2,29.59,ENE,74,2.0,5.0,74,0.00,,,0.21,559,Wunderground v.1.15,2013-05-17 21:58:00,
2013-05-17 16:03:00,55.7,47.2,29.59,ENE,74,2.0,5.0,73,0.00,,,0.21,431,Wunderground v.1.15,2013-05-17 22:03:00,
2013-05-17 16:08:00,55.9,48.4,29.59,ENE,74,0.0,5.0,76,0.00,,,0.21,396,Wunderground v.1.15,2013-05-17 22:08:00,
2013-05-17 16:13:00,55.9,48.1,29.59,ENE,71,0.0,2.0,75,0.00,,,0.21,445,Wunderground v.1.15,2013-05-17 22:13:00,
2013-05-17 16:18:00,56.2,49.1,29.59,ENE,71,2.0,3.0,77,0.00,,,0.21,381,Wunderground v.1.15,2013-05-17 22:18:00,
2013-05-17 16:23:00,56.3,48.5,29.59,ENE,71,1.0,2.0,75,0.00,,,0.21,404,Wunderground v.1.15,2013-05-17 22:23:00,
2013-05-17 16:28:00,56.5,48.7,29.59,ENE,71,0.0,4.0,75,0.00,,,0.21,369,Wunderground v.1.15,2013-05-17 22:28:00,
2013-05-17 16:33:00,56.7,48.5,29.59,ENE,71,1.0,4.0,74,0.00,,,0.21,346,Wunderground v.1.15,2013-05-17 22:33:00,
2013-05-17 16:39:00,56.8,48.2,29.59,ENE,71,0.0,4.0,73,0.00,,,0.21,330,Wunderground v.1.15,2013-05-17 22:39:00,
2013-05-17 16:44:00,56.9,48.0,29.59,ENE,71,0.0,1.0,72,0.00,,,0.21,338,Wunderground v.1.15,2013-05-17 22:44:00,
2013-05-17 16:49:00,56.8,46.7,29.59,ENE,71,0.0,2.0,69,0.00,,,0.21,297,Wunderground v.1.15,2013-05-17 22:49:00,
2013-05-17 16:54:00,56.8,46.7,29.59,ENE,69,2.0,4.0,69,0.00,,,0.21,281,Wunderground v.1.15,2013-05-17 22:54:00,
2013-05-17 16:59:00,56.8,47.1,29.59,ENE,69,0.0,4.0,70,0.00,,,0.21,234,Wunderground v.1.15,2013-05-17 22:59:00,
2013-05-17 17:04:00,56.7,47.0,29.59,ENE,68,0.0,2.0,70,0.00,,,0.21,144,Wunderground v.1.15,2013-05-17 23:04:00,
2013-05-17 17:09:00,56.5,46.4,29.59,ENE,68,0.0,2.0,69,0.00,,,0.21,121,Wunderground v.1.15,2013-05-17 23:09:00,
2013-05-17 17:14:00,56.3,46.6,29.59,ENE,68,0.0,3.0,70,0.00,,,0.21,98,Wunderground v.1.15,2013-05-17 23:14:00,
2013-05-17 17:19:00,56.1,46.8,29.59,ENE,68,0.0,3.0,71,0.00,,,0.21,105,Wunderground v.1.15,2013-05-17 23:19:00,
2013-05-17 17:24:00,55.9,47.0,29.59,ENE,68,0.0,2.0,72,0.00,,,0.21,132,Wunderground v.1.15,2013-05-17 23:24:00,
2013-05-17 17:29:00,55.8,47.3,29.59,ENE,68,0.0,2.0,73,0.00,,,0.21,185,Wunderground v.1.15,2013-05-17 23:29:00,
2013-05-17 17:34:00,55.7,47.2,29.60,ENE,68,0.0,0.0,73,0.00,,,0.21,209,Wunderground v.1.15,2013-05-17 23:34:00,
2013-05-17 17:39:00,55.7,47.5,29.59,ENE,68,0.0,0.0,74,0.00,,,0.21,227,Wunderground v.1.15,2013-05-17 23:39:00,
2013-05-17 17:44:00,55.8,47.6,29.60,ENE,68,0.0,0.0,74,0.00,,,0.21,204,Wunderground v.1.15,2013-05-17 23:44:00,
2013-05-17 17:50:00,55.8,47.6,29.60,ENE,68,0.0,0.0,74,0.00,,,0.21,179,Wunderground v.1.15,2013-05-17 23:50:00,
2013-05-17 17:55:00,55.7,47.2,29.59,ENE,67,0.0,2.0,73,0.00,,,0.21,169,Wunderground v.1.15,2013-05-17 23:55:00,
2013-05-17 18:00:00,55.7,46.8,29.59,ENE,67,0.0,1.0,72,0.00,,,0.21,139,Wunderground v.1.15,2013-05-18 00:00:00,
2013-05-17 18:05:00,55.7,47.5,29.59,ENE,66,1.0,2.0,74,0.00,,,0.21,130,Wunderground v.1.15,2013-05-18 00:05:00,
2013-05-17 18:10:00,55.6,47.1,29.59,ENE,66,1.0,2.0,73,0.00,,,0.21,104,Wunderground v.1.15,2013-05-18 00:10:00,
2013-05-17 18:15:00,55.4,46.9,29.59,ENE,66,0.0,2.0,73,0.00,,,0.21,118,Wunderground v.1.15,2013-05-18 00:15:00,
2013-05-17 18:20:00,55.3,46.8,29.59,ENE,66,0.0,0.0,73,0.00,,,0.21,134,Wunderground v.1.15,2013-05-18 00:20:00,
2013-05-17 18:25:00,55.3,47.5,29.59,ENE,66,0.0,0.0,75,0.00,,,0.21,130,Wunderground v.1.15,2013-05-18 00:25:00,
2013-05-17 18:30:00,55.2,47.1,29.59,ENE,66,0.0,0.0,74,0.00,,,0.21,111,Wunderground v.1.15,2013-05-18 00:30:00,
2013-05-17 18:35:00,55.1,47.3,29.59,ENE,66,0.0,3.0,75,0.00,,,0.21,100,Wunderground v.1.15,2013-05-18 00:35:00,
2013-05-17 18:40:00,55.1,47.3,29.59,ENE,66,0.0,0.0,75,0.00,,,0.21,98,Wunderground v.1.15,2013-05-18 00:40:00,
2013-05-17 18:45:00,55.0,47.2,29.59,ENE,66,0.0,2.0,75,0.00,,,0.21,109,Wunderground v.1.15,2013-05-18 00:45:00,
2013-05-17 18:50:00,54.9,47.1,29.60,ENE,66,0.0,0.0,75,0.00,,,0.21,116,Wunderground v.1.15,2013-05-18 00:50:00,
2013-05-17 18:55:00,54.9,46.8,29.60,ENE,66,0.0,1.0,74,0.00,,,0.21,102,Wunderground v.1.15,2013-05-18 00:55:00,
2013-05-17 19:00:00,54.8,47.0,29.60,ENE,66,0.0,0.0,75,0.00,,,0.21,120,Wunderground v.1.15,2013-05-18 01:00:00,
2013-05-17 19:06:00,54.8,47.0,29.60,ENE,66,0.0,1.0,75,0.00,,,0.21,104,Wunderground v.1.15,2013-05-18 01:06:00,
2013-05-17 19:10:00,54.8,47.0,29.60,ENE,66,0.0,0.0,75,0.00,,,0.21,76,Wunderground v.1.15,2013-05-18 01:10:00,
2013-05-17 19:16:00,54.6,46.8,29.60,ENE,66,0.0,1.0,75,0.00,,,0.21,67,Wunderground v.1.15,2013-05-18 01:16:00,
2013-05-17 19:22:00,54.6,46.8,29.60,ENE,66,0.0,0.0,75,0.00,,,0.21,54,Wunderground v.1.15,2013-05-18 01:22:00,
2013-05-17 19:27:00,54.5,46.7,29.60,ENE,66,0.0,1.0,75,0.00,,,0.21,53,Wunderground v.1.15,2013-05-18 01:27:00,
2013-05-17 19:32:00,54.3,46.9,29.60,ENE,66,1.0,1.0,76,0.00,,,0.21,30,Wunderground v.1.15,2013-05-18 01:32:00,
2013-05-17 19:37:00,54.2,46.4,29.61,ENE,66,0.0,1.0,75,0.00,,,0.21,23,Wunderground v.1.15,2013-05-18 01:37:00,
2013-05-17 19:42:00,54.0,46.3,29.61,ENE,66,0.0,2.0,75,0.00,,,0.21,18,Wunderground v.1.15,2013-05-18 01:42:00,
2013-05-17 19:47:00,53.6,46.2,29.61,ENE,66,0.0,2.0,76,0.00,,,0.21,16,Wunderground v.1.15,2013-05-18 01:47:00,
2013-05-17 19:52:00,53.5,46.1,29.61,ENE,66,1.0,1.0,76,0.00,,,0.21,14,Wunderground v.1.15,2013-05-18 01:52:00,
2013-05-17 19:57:00,53.4,46.4,29.61,ENE,66,0.0,2.0,77,0.00,,,0.21,14,Wunderground v.1.15,2013-05-18 01:57:00,
2013-05-17 20:02:00,53.2,46.2,29.61,North,6,1.0,3.0,77,0.00,,,0.21,16,Wunderground v.1.15,2013-05-18 02:02:00,
2013-05-17 20:07:00,53.1,46.1,29.61,North,356,0.0,3.0,77,0.00,,,0.21,14,Wunderground v.1.15,2013-05-18 02:07:00,
2013-05-17 20:12:00,53.0,46.0,29.61,North,356,0.0,1.0,77,0.00,,,0.21,14,Wunderground v.1.15,2013-05-18 02:12:00,
2013-05-17 20:17:00,52.8,46.1,29.61,North,352,2.0,4.0,78,0.00,,,0.21,14,Wunderground v.1.15,2013-05-18 02:17:00,
2013-05-17 20:22:00,52.5,46.2,29.61,NNW,334,4.0,5.0,79,0.00,,,0.21,14,Wunderground v.1.15,2013-05-18 02:22:00,
2013-05-17 20:27:00,52.3,46.0,29.61,NNW,333,1.0,5.0,79,0.00,,,0.21,12,Wunderground v.1.15,2013-05-18 02:27:00,
2013-05-17 20:36:00,51.9,45.9,29.61,NNW,333,1.0,2.0,80,0.00,,,0.21,7,Wunderground v.1.15,2013-05-18 02:36:00,
2013-05-17 20:42:00,51.5,45.5,29.61,NNW,333,2.0,2.0,80,0.00,,,0.21,5,Wunderground v.1.15,2013-05-18 02:42:00,
2013-05-17 20:47:00,51.2,45.6,29.61,NNW,333,0.0,2.0,81,0.00,,,0.21,0,Wunderground v.1.15,2013-05-18 02:47:00,
2013-05-17 20:52:00,51.0,45.4,29.61,NNW,333,1.0,2.0,81,0.00,,,0.21,0,Wunderground v.1.15,2013-05-18 02:52:00,
2013-05-17 20:57:00,50.7,45.1,29.61,NNW,333,4.0,4.0,81,0.00,,,0.21,0,Wunderground v.1.15,2013-05-18 02:57:00,
2013-05-17 21:02:00,50.5,44.9,29.61,NW,323,2.0,4.0,81,0.00,,,0.21,0,Wunderground v.1.15,2013-05-18 03:02:00,
2013-05-17 21:07:00,50.2,44.9,29.61,NW,323,0.0,4.0,82,0.00,,,0.21,0,Wunderground v.1.15,2013-05-18 03:07:00,
2013-05-17 21:12:00,50.1,44.8,29.62,NW,323,3.0,4.0,82,0.00,,,0.21,0,Wunderground v.1.15,2013-05-18 03:12:00,
2013-05-17 21:17:00,49.9,44.9,29.63,NW,322,4.0,5.0,83,0.00,,,0.21,0,Wunderground v.1.15,2013-05-18 03:17:00,
2013-05-17 21:22:00,49.8,44.8,29.63,NW,322,3.0,3.0,83,0.00,,,0.21,0,Wunderground v.1.15,2013-05-18 03:22:00,
2013-05-17 21:27:00,49.7,44.7,29.63,NW,322,0.0,3.0,83,0.00,,,0.21,0,Wunderground v.1.15,2013-05-18 03:27:00,
2013-05-17 21:32:00,49.6,44.6,29.63,NW,322,1.0,3.0,83,0.00,,,0.21,0,Wunderground v.1.15,2013-05-18 03:32:00,
2013-05-17 21:37:00,49.5,44.2,29.63,NW,322,1.0,3.0,82,0.00,,,0.21,0,Wunderground v.1.15,2013-05-18 03:37:00,
2013-05-17 21:42:00,49.5,44.2,29.63,NW,322,0.0,2.0,82,0.00,,,0.21,0,Wunderground v.1.15,2013-05-18 03:42:00,
2013-05-17 21:47:00,49.4,44.1,29.63,NW,322,0.0,5.0,82,0.00,,,0.21,0,Wunderground v.1.15,2013-05-18 03:47:00,
2013-05-17 21:52:00,49.4,44.5,29.64,NW,322,0.0,1.0,83,0.00,,,0.21,0,Wunderground v.1.15,2013-05-18 03:52:00,
2013-05-17 21:57:00,49.3,44.4,29.64,NW,322,0.0,1.0,83,0.00,,,0.21,0,Wunderground v.1.15,2013-05-18 03:57:00,
2013-05-17 22:01:00,49.4,44.8,29.64,NW,322,0.0,0.0,84,0.00,,,0.21,0,Wunderground v.1.15,2013-05-18 04:01:00,
2013-05-17 22:02:00,49.4,44.8,29.64,NW,322,0.0,0.0,84,0.00,,,0.21,0,Wunderground v.1.15,2013-05-18 04:02:00,
2013-05-17 22:07:00,49.4,44.8,29.64,NW,322,0.0,0.0,84,0.00,,,0.21,0,Wunderground v.1.15,2013-05-18 04:07:00,
2013-05-17 22:12:00,49.3,44.7,29.64,NW,322,0.0,2.0,84,0.00,,,0.21,0,Wunderground v.1.15,2013-05-18 04:12:00,
2013-05-17 22:17:00,49.2,44.6,29.65,NW,322,2.0,2.0,84,0.00,,,0.21,0,Wunderground v.1.15,2013-05-18 04:17:00,
2013-05-17 22:22:00,49.2,44.6,29.65,NW,322,2.0,2.0,84,0.00,,,0.21,0,Wunderground v.1.15,2013-05-18 04:22:00,
2013-05-17 22:27:00,49.2,44.6,29.65,NW,322,0.0,3.0,84,0.00,,,0.21,0,Wunderground v.1.15,2013-05-18 04:27:00,
2013-05-17 22:32:00,49.2,44.6,29.65,NW,322,0.0,1.0,84,0.00,,,0.21,0,Wunderground v.1.15,2013-05-18 04:32:00,
2013-05-17 22:37:00,49.1,44.2,29.65,NW,322,0.0,1.0,83,0.00,,,0.21,0,Wunderground v.1.15,2013-05-18 04:37:00,
2013-05-17 22:42:00,49.0,44.1,29.65,NW,322,0.0,1.0,83,0.00,,,0.21,0,Wunderground v.1.15,2013-05-18 04:42:00,
2013-05-17 22:47:00,48.8,44.2,29.66,NW,322,0.0,2.0,84,0.00,,,0.21,0,Wunderground v.1.15,2013-05-18 04:47:00,
2013-05-17 22:52:00,48.6,44.0,29.66,NW,322,0.0,1.0,84,0.00,,,0.21,0,Wunderground v.1.15,2013-05-18 04:52:00,
2013-05-17 22:57:00,48.4,44.1,29.66,NW,322,1.0,2.0,85,0.00,,,0.21,0,Wunderground v.1.15,2013-05-18 04:57:00,
2013-05-17 23:02:00,48.3,44.0,29.66,NW,320,2.0,5.0,85,0.00,,,0.21,0,Wunderground v.1.15,2013-05-18 05:02:00,
2013-05-17 23:07:00,48.1,44.1,29.66,NW,320,3.0,5.0,86,0.00,,,0.21,0,Wunderground v.1.15,2013-05-18 05:07:00,
2013-05-17 23:12:00,48.1,44.1,29.66,NW,319,2.0,3.0,86,0.00,,,0.21,0,Wunderground v.1.15,2013-05-18 05:12:00,
2013-05-17 23:17:00,48.2,44.5,29.66,NW,319,1.0,3.0,87,0.00,,,0.21,0,Wunderground v.1.15,2013-05-18 05:17:00,
2013-05-17 23:22:00,48.3,44.6,29.66,NW,314,3.0,5.0,87,0.00,,,0.21,0,Wunderground v.1.15,2013-05-18 05:22:00,
2013-05-17 23:27:00,48.5,44.8,29.65,NW,315,1.0,6.0,87,0.00,,,0.21,0,Wunderground v.1.15,2013-05-18 05:27:00,
2013-05-17 23:32:00,48.6,45.2,29.66,NW,315,3.0,3.0,88,0.00,,,0.21,0,Wunderground v.1.15,2013-05-18 05:32:00,
2013-05-17 23:37:00,48.7,45.0,29.66,WNW,297,1.0,8.0,87,0.00,,,0.21,0,Wunderground v.1.15,2013-05-18 05:37:00,
2013-05-17 23:42:00,48.8,45.1,29.65,WNW,297,2.0,3.0,87,0.00,,,0.21,0,Wunderground v.1.15,2013-05-18 05:42:00,
2013-05-17 23:47:00,48.8,44.8,29.65,WNW,284,4.0,8.0,86,0.00,,,0.21,0,Wunderground v.1.15,2013-05-18 05:47:00,
2013-05-17 23:52:00,48.9,44.9,29.65,West,281,2.0,6.0,86,0.00,,,0.21,0,Wunderground v.1.15,2013-05-18 05:52:00,
2013-05-17 23:57:00,48.9,44.9,29.65,West,281,2.0,6.0,86,0.00,,,0.21,0,Wunderground v.1.15,2013-05-18 05:57:00,